createdAt,value
2018-03-21T00:02:22.443Z,-1.10
2018-03-21T00:04:49.992Z,-1.10
2018-03-21T00:07:17.596Z,-1.10
2018-03-21T00:09:45.157Z,-1.10
2018-03-21T00:12:13.092Z,-1.00
2018-03-21T00:14:40.637Z,-1.00
2018-03-21T00:17:08.143Z,-1.10
2018-03-21T00:19:36.088Z,-1.10
2018-03-21T00:22:03.604Z,-1.20
2018-03-21T00:24:31.150Z,-1.20
2018-03-21T00:26:58.676Z,-1.10
2018-03-21T00:29:26.261Z,-1.10
2018-03-21T00:31:53.787Z,-1.10
2018-03-21T00:34:21.336Z,-1.10
2018-03-21T00:36:48.982Z,-1.00
2018-03-21T00:39:16.489Z,-1.00
2018-03-21T00:41:44.424Z,-1.10
2018-03-21T00:44:11.947Z,-1.00
2018-03-21T00:46:39.502Z,-1.10
2018-03-21T00:49:07.032Z,-1.10
2018-03-21T00:51:34.974Z,-1.10
2018-03-21T00:54:02.495Z,-1.10
2018-03-21T00:56:30.102Z,-1.20
2018-03-21T00:58:57.659Z,-1.20
2018-03-21T01:01:25.630Z,-1.30
2018-03-21T01:03:53.752Z,-1.30
2018-03-21T01:06:21.310Z,-1.30
2018-03-21T01:08:48.824Z,-1.30
2018-03-21T01:11:16.776Z,-1.40
2018-03-21T01:13:44.312Z,-1.40
2018-03-21T01:16:11.867Z,-1.40
2018-03-21T01:18:39.387Z,-1.40
2018-03-21T01:21:06.987Z,-1.40
2018-03-21T01:23:34.529Z,-1.40
2018-03-21T01:26:02.071Z,-1.40
2018-03-21T01:28:29.612Z,-1.40
2018-03-21T01:30:57.559Z,-1.40
2018-03-21T01:33:25.075Z,-1.40
2018-03-21T01:35:52.731Z,-1.40
2018-03-21T01:38:20.271Z,-1.30
2018-03-21T01:40:47.815Z,-1.30
2018-03-21T01:43:15.739Z,-1.30
2018-03-21T01:45:43.254Z,-1.30
2018-03-21T01:48:10.823Z,-1.30
2018-03-21T01:50:38.357Z,-1.30
2018-03-21T01:53:11.165Z,-1.30
2018-03-21T01:55:38.795Z,-1.30
2018-03-21T01:58:06.729Z,-1.30
2018-03-21T02:00:34.261Z,-1.30
2018-03-21T02:03:01.828Z,-1.30
2018-03-21T02:05:29.351Z,-1.30
2018-03-21T02:07:56.892Z,-1.30
2018-03-21T02:10:24.915Z,-1.40
2018-03-21T02:12:52.486Z,-1.40
2018-03-21T02:15:19.998Z,-1.40
2018-03-21T02:17:47.559Z,-1.40
2018-03-21T02:20:15.075Z,-1.40
2018-03-21T02:22:42.764Z,-1.40
2018-03-21T02:25:10.689Z,-1.30
2018-03-21T02:27:38.247Z,-1.30
2018-03-21T02:30:05.769Z,-1.30
2018-03-21T02:32:33.320Z,-1.30
2018-03-21T02:35:00.836Z,-1.30
2018-03-21T02:37:28.371Z,-1.30
2018-03-21T02:39:55.893Z,-1.30
2018-03-21T02:42:23.428Z,-1.30
2018-03-21T02:44:51.344Z,-1.20
2018-03-21T02:47:18.882Z,-1.30
2018-03-21T02:49:46.411Z,-1.30
2018-03-21T02:52:14.332Z,-1.30
2018-03-21T02:54:41.871Z,-1.40
2018-03-21T02:57:09.388Z,-1.40
2018-03-21T02:59:37.332Z,-1.40
2018-03-21T03:02:04.855Z,-1.40
2018-03-21T03:04:32.417Z,-1.30
2018-03-21T03:06:59.948Z,-1.30
2018-03-21T03:09:27.969Z,-1.40
2018-03-21T03:11:55.471Z,-1.40
2018-03-21T03:14:23.422Z,-1.30
2018-03-21T03:16:50.934Z,-1.30
2018-03-21T03:19:18.870Z,-1.20
2018-03-21T03:21:46.419Z,-1.20
2018-03-21T03:24:14.363Z,-1.30
2018-03-21T03:26:41.888Z,-1.30
2018-03-21T03:29:09.548Z,-1.30
2018-03-21T03:31:37.068Z,-1.30
2018-03-21T03:34:05.003Z,-1.30
2018-03-21T03:36:32.535Z,-1.20
2018-03-21T03:39:00.063Z,-1.20
2018-03-21T03:41:27.980Z,-1.30
2018-03-21T03:43:55.526Z,-1.30
2018-03-21T03:46:23.044Z,-1.30
2018-03-21T03:48:50.613Z,-1.40
2018-03-21T03:51:18.198Z,-1.40
2018-03-21T03:53:45.813Z,-1.40
2018-03-21T03:56:13.727Z,-1.30
2018-03-21T03:58:41.303Z,-1.40
2018-03-21T04:01:08.820Z,-1.30
2018-03-21T04:03:36.370Z,-1.30
2018-03-21T04:06:03.905Z,-1.30
2018-03-21T04:08:31.824Z,-1.30
2018-03-21T04:10:59.363Z,-1.20
2018-03-21T04:13:26.874Z,-1.20
2018-03-21T04:15:54.487Z,-1.20
2018-03-21T04:18:22.012Z,-1.30
2018-03-21T04:20:49.609Z,-1.30
2018-03-21T04:23:17.185Z,-1.30
2018-03-21T04:25:44.817Z,-1.30
2018-03-21T04:28:12.335Z,-1.30
2018-03-21T04:30:40.282Z,-1.30
2018-03-21T04:33:07.811Z,-1.30
2018-03-21T04:35:35.407Z,-1.20
2018-03-21T04:38:03.326Z,-1.20
2018-03-21T04:40:30.867Z,-1.20
2018-03-21T04:42:58.377Z,-1.20
2018-03-21T04:45:25.915Z,-1.30
2018-03-21T04:47:53.431Z,-1.30
2018-03-21T04:50:21.360Z,-1.30
2018-03-21T04:52:48.901Z,-1.40
2018-03-21T04:55:16.420Z,-1.40
2018-03-21T04:57:44.181Z,-1.40
2018-03-21T05:00:12.094Z,-1.40
2018-03-21T05:02:39.693Z,-1.30
2018-03-21T05:05:07.623Z,-1.40
2018-03-21T05:07:35.183Z,-1.40
2018-03-21T05:10:02.702Z,-1.40
2018-03-21T05:12:30.256Z,-1.40
2018-03-21T05:14:57.781Z,-1.30
2018-03-21T05:17:25.319Z,-1.30
2018-03-21T05:19:52.847Z,-1.30
2018-03-21T05:22:21.672Z,-1.30
2018-03-21T05:24:49.184Z,-1.20
2018-03-21T05:27:16.728Z,-1.20
2018-03-21T05:29:44.638Z,-1.20
2018-03-21T05:32:12.180Z,-1.20
2018-03-21T05:34:39.694Z,-1.20
2018-03-21T05:37:07.732Z,-1.20
2018-03-21T05:39:35.247Z,-1.20
2018-03-21T05:42:02.931Z,-1.20
2018-03-21T05:44:30.466Z,-1.20
2018-03-21T05:46:58.055Z,-1.30
2018-03-21T05:49:25.600Z,-1.20
2018-03-21T05:51:53.140Z,-1.20
2018-03-21T05:54:20.686Z,-1.10
2018-03-21T05:56:48.607Z,-1.20
2018-03-21T05:59:16.171Z,-1.20
2018-03-21T06:01:43.693Z,-1.10
2018-03-21T06:04:11.235Z,-1.20
2018-03-21T06:06:39.143Z,-1.30
2018-03-21T06:09:06.728Z,-1.30
2018-03-21T06:11:34.241Z,-1.30
2018-03-21T06:14:01.778Z,-1.40
2018-03-21T06:16:29.678Z,-1.40
2018-03-21T06:18:57.226Z,-1.30
2018-03-21T06:21:24.747Z,-1.30
2018-03-21T06:23:52.701Z,-1.20
2018-03-21T06:26:20.214Z,-1.20
2018-03-21T06:28:47.753Z,-1.10
2018-03-21T06:31:15.350Z,-1.10
2018-03-21T06:33:42.870Z,-1.10
2018-03-21T06:36:10.448Z,-1.20
2018-03-21T06:38:37.961Z,-1.20
2018-03-21T06:41:05.895Z,-1.20
2018-03-21T06:43:33.417Z,-1.20
2018-03-21T06:46:00.943Z,-1.10
2018-03-21T06:48:28.866Z,-1.10
2018-03-21T06:50:56.421Z,-1.10
2018-03-21T06:53:23.987Z,-1.10
2018-03-21T06:55:51.531Z,-1.10
2018-03-21T06:58:19.048Z,-1.10
2018-03-21T07:00:47.015Z,-1.10
2018-03-21T07:03:14.926Z,-1.00
2018-03-21T07:05:42.453Z,-0.90
2018-03-21T07:08:10.356Z,-0.90
2018-03-21T07:10:37.887Z,-1.00
2018-03-21T07:13:05.411Z,-1.00
2018-03-21T07:15:44.719Z,-1.00
2018-03-21T07:18:12.232Z,-1.00
2018-03-21T07:20:39.743Z,-1.00
2018-03-21T07:23:07.276Z,-0.90
2018-03-21T07:25:34.808Z,-0.70
2018-03-21T07:28:02.345Z,-0.60
2018-03-21T07:30:30.259Z,-0.50
2018-03-21T07:32:57.792Z,-0.40
2018-03-21T07:35:25.691Z,-0.30
2018-03-21T07:37:53.215Z,-0.20
2018-03-21T07:40:20.732Z,-0.20
2018-03-21T07:42:48.267Z,-0.20
2018-03-21T07:45:15.773Z,-0.10
2018-03-21T07:47:43.694Z,-0.10
2018-03-21T07:50:11.195Z,0.00
2018-03-21T07:52:39.121Z,-0.20
2018-03-21T07:55:06.643Z,-0.20
2018-03-21T07:57:34.159Z,-0.20
2018-03-21T08:00:01.705Z,-0.20
2018-03-21T08:02:29.224Z,-0.20
2018-03-21T08:04:56.790Z,0.00
2018-03-21T08:07:24.303Z,0.10
2018-03-21T08:09:52.230Z,0.50
2018-03-21T08:12:19.748Z,0.50
2018-03-21T08:14:47.303Z,0.70
2018-03-21T08:17:15.300Z,0.70
2018-03-21T08:19:42.829Z,0.80
2018-03-21T08:22:10.823Z,0.70
2018-03-21T08:24:38.360Z,0.70
2018-03-21T08:27:06.258Z,1.00
2018-03-21T08:29:33.794Z,1.10
2018-03-21T08:32:01.438Z,1.10
2018-03-21T08:34:29.447Z,0.90
2018-03-21T08:36:56.934Z,1.00
2018-03-21T08:39:24.437Z,1.10
2018-03-21T08:41:52.007Z,1.10
2018-03-21T08:44:19.538Z,1.20
2018-03-21T08:46:47.455Z,1.20
2018-03-21T08:49:14.974Z,1.20
2018-03-21T08:51:42.513Z,1.00
2018-03-21T08:54:10.420Z,0.80
2018-03-21T08:56:38.032Z,0.80
2018-03-21T08:59:05.536Z,0.90
2018-03-21T09:01:33.070Z,1.00
2018-03-21T09:04:00.971Z,0.80
2018-03-21T09:06:28.504Z,0.90
2018-03-21T09:08:56.014Z,0.90
2018-03-21T09:11:23.534Z,1.00
2018-03-21T09:13:51.028Z,1.00
2018-03-21T09:16:18.558Z,1.00
2018-03-21T09:18:46.107Z,0.90
2018-03-21T09:21:13.647Z,0.70
2018-03-21T09:23:41.166Z,0.70
2018-03-21T09:26:08.807Z,0.90
2018-03-21T09:28:36.354Z,1.10
2018-03-21T09:31:03.870Z,1.10
2018-03-21T09:33:31.784Z,1.50
2018-03-21T09:35:59.308Z,1.30
2018-03-21T09:38:27.247Z,1.20
2018-03-21T09:40:54.767Z,1.20
2018-03-21T09:43:22.295Z,1.30
2018-03-21T09:45:49.811Z,1.50
2018-03-21T09:48:17.343Z,1.60
2018-03-21T09:50:44.861Z,1.60
2018-03-21T09:53:12.392Z,1.70
2018-03-21T09:55:39.895Z,1.80
2018-03-21T09:58:07.433Z,1.70
2018-03-21T10:00:34.944Z,1.60
2018-03-21T10:03:02.496Z,1.30
2018-03-21T10:05:29.995Z,1.40
2018-03-21T10:07:58.099Z,1.40
2018-03-21T10:10:25.607Z,1.40
2018-03-21T10:12:53.144Z,1.60
2018-03-21T10:15:20.660Z,1.60
2018-03-21T10:17:48.195Z,1.60
2018-03-21T10:20:16.091Z,1.70
2018-03-21T10:22:43.634Z,1.80
2018-03-21T10:25:11.159Z,1.80
2018-03-21T10:27:38.674Z,2.10
2018-03-21T10:30:06.204Z,2.30
2018-03-21T10:32:33.726Z,2.30
2018-03-21T10:35:01.374Z,2.40
2018-03-21T10:37:28.879Z,2.40
2018-03-21T10:39:56.819Z,2.30
2018-03-21T10:42:24.336Z,2.20
2018-03-21T10:44:51.902Z,2.40
2018-03-21T10:47:19.398Z,2.60
2018-03-21T10:49:46.938Z,2.70
2018-03-21T10:52:14.443Z,2.80
2018-03-21T10:54:41.971Z,2.90
2018-03-21T10:57:09.487Z,3.10
2018-03-21T10:59:37.411Z,3.40
2018-03-21T11:02:11.131Z,3.50
2018-03-21T11:04:38.668Z,3.70
2018-03-21T11:07:06.588Z,3.80
2018-03-21T11:09:34.539Z,3.90
2018-03-21T11:12:02.097Z,3.70
2018-03-21T11:14:29.652Z,3.80
2018-03-21T11:16:57.151Z,3.20
2018-03-21T11:19:24.670Z,2.70
2018-03-21T11:21:52.199Z,2.20
2018-03-21T11:24:20.102Z,1.60
2018-03-21T11:26:47.624Z,1.80
2018-03-21T11:29:15.526Z,2.10
2018-03-21T11:31:43.087Z,2.30
2018-03-21T11:34:10.640Z,2.40
2018-03-21T11:36:38.155Z,2.30
2018-03-21T11:39:06.085Z,2.30
2018-03-21T11:41:33.628Z,2.30
2018-03-21T11:44:01.216Z,2.30
2018-03-21T11:46:28.748Z,2.30
2018-03-21T11:48:56.252Z,2.50
2018-03-21T11:51:24.180Z,3.30
2018-03-21T11:53:51.694Z,3.30
2018-03-21T11:56:19.228Z,3.30
2018-03-21T11:58:46.727Z,3.60
2018-03-21T12:01:14.247Z,3.90
2018-03-21T12:03:41.865Z,4.00
2018-03-21T12:06:09.412Z,4.40
2018-03-21T12:08:36.943Z,4.50
2018-03-21T12:11:04.852Z,4.40
2018-03-21T12:13:32.383Z,4.40
2018-03-21T12:15:59.901Z,4.10
2018-03-21T12:18:27.432Z,3.90
2018-03-21T12:20:54.935Z,3.60
2018-03-21T12:23:22.952Z,3.30
2018-03-21T12:25:50.457Z,3.30
2018-03-21T12:28:18.427Z,3.20
2018-03-21T12:30:46.331Z,3.20
2018-03-21T12:33:13.852Z,3.20
2018-03-21T12:35:41.759Z,3.40
2018-03-21T12:38:09.318Z,3.60
2018-03-21T12:40:36.864Z,3.60
2018-03-21T12:43:04.747Z,3.70
2018-03-21T12:45:32.273Z,3.60
2018-03-21T12:48:00.179Z,3.80
2018-03-21T12:50:27.695Z,3.80
2018-03-21T12:52:55.600Z,3.90
2018-03-21T12:55:23.124Z,3.90
2018-03-21T12:57:50.619Z,3.90
2018-03-21T13:00:18.166Z,4.00
2018-03-21T13:02:45.669Z,4.10
2018-03-21T13:05:13.193Z,4.30
2018-03-21T13:07:40.722Z,4.30
2018-03-21T13:10:08.267Z,4.40
2018-03-21T13:12:36.184Z,4.30
2018-03-21T13:15:03.713Z,4.20
2018-03-21T13:17:31.223Z,4.20
2018-03-21T13:19:58.754Z,4.20
2018-03-21T13:22:26.269Z,4.20
2018-03-21T13:24:53.802Z,4.20
2018-03-21T13:27:21.300Z,4.10
2018-03-21T13:29:48.832Z,4.10
2018-03-21T13:32:16.724Z,4.00
2018-03-21T13:34:44.280Z,4.00
2018-03-21T13:37:11.795Z,3.80
2018-03-21T13:39:39.303Z,3.80
2018-03-21T13:42:06.847Z,3.80
2018-03-21T13:44:34.355Z,3.80
2018-03-21T13:47:01.889Z,3.60
2018-03-21T13:49:29.407Z,3.60
2018-03-21T13:51:57.348Z,3.50
2018-03-21T13:54:24.969Z,3.50
2018-03-21T13:56:52.491Z,3.50
2018-03-21T13:59:20.397Z,3.50
2018-03-21T14:01:47.923Z,3.40
2018-03-21T14:04:15.823Z,3.30
2018-03-21T14:06:43.348Z,3.30
2018-03-21T14:09:10.879Z,3.20
2018-03-21T14:11:38.481Z,3.10
2018-03-21T14:14:05.997Z,3.10
2018-03-21T14:16:33.532Z,3.00
2018-03-21T14:19:01.052Z,3.00
2018-03-21T14:21:28.571Z,3.00
2018-03-21T14:23:56.388Z,3.00
2018-03-21T14:26:23.900Z,3.00
2018-03-21T14:28:51.831Z,2.90
2018-03-21T14:31:19.342Z,2.90
2018-03-21T14:33:47.268Z,2.90
2018-03-21T14:36:14.808Z,2.80
2018-03-21T14:38:42.349Z,2.80
2018-03-21T14:41:09.881Z,2.70
2018-03-21T14:43:37.424Z,2.80
2018-03-21T14:46:05.331Z,3.00
2018-03-21T14:48:32.851Z,3.00
2018-03-21T14:51:00.755Z,3.10
2018-03-21T14:53:28.285Z,3.10
2018-03-21T14:55:56.191Z,3.10
2018-03-21T14:58:23.708Z,3.20
2018-03-21T15:00:51.625Z,3.30
2018-03-21T15:03:19.141Z,3.30
2018-03-21T15:05:47.076Z,3.40
2018-03-21T15:08:14.592Z,3.50
2018-03-21T15:10:42.127Z,3.60
2018-03-21T15:13:09.638Z,3.60
2018-03-21T15:15:37.172Z,3.70
2018-03-21T15:18:04.671Z,3.70
2018-03-21T15:20:32.200Z,3.80
2018-03-21T15:22:59.796Z,3.70
2018-03-21T15:25:27.719Z,3.70
2018-03-21T15:27:55.217Z,3.70
2018-03-21T15:30:22.739Z,3.60
2018-03-21T15:32:50.236Z,3.50
2018-03-21T15:35:18.164Z,3.10
2018-03-21T15:37:45.680Z,3.10
2018-03-21T15:40:13.275Z,2.70
2018-03-21T15:42:40.817Z,2.70
2018-03-21T15:45:08.389Z,2.50
2018-03-21T15:47:35.880Z,2.30
2018-03-21T15:50:03.414Z,2.20
2018-03-21T15:52:30.951Z,2.10
2018-03-21T15:54:58.476Z,2.00
2018-03-21T15:57:26.491Z,1.90
2018-03-21T15:59:54.017Z,1.90
2018-03-21T16:02:21.559Z,1.90
2018-03-21T16:04:49.462Z,1.90
2018-03-21T16:07:16.990Z,1.90
2018-03-21T16:09:44.891Z,1.80
2018-03-21T16:12:12.415Z,1.80
2018-03-21T16:14:40.319Z,1.80
2018-03-21T16:17:07.872Z,1.80
2018-03-21T16:19:35.374Z,1.80
2018-03-21T16:22:02.893Z,1.80
2018-03-21T16:24:30.415Z,1.90
2018-03-21T16:26:58.347Z,1.80
2018-03-21T16:29:25.876Z,1.80
2018-03-21T16:31:53.415Z,1.80
2018-03-21T16:34:20.920Z,1.90
2018-03-21T16:36:48.560Z,1.90
2018-03-21T16:39:16.083Z,1.80
2018-03-21T16:41:43.764Z,1.90
2018-03-21T16:44:11.296Z,1.90
2018-03-21T16:46:38.816Z,2.00
2018-03-21T16:49:06.355Z,2.00
2018-03-21T16:51:33.869Z,2.10
2018-03-21T16:54:01.795Z,2.10
2018-03-21T16:56:29.296Z,2.10
2018-03-21T16:58:57.288Z,2.10
2018-03-21T17:01:24.846Z,2.00
2018-03-21T17:03:52.412Z,2.00
2018-03-21T17:06:19.928Z,2.00
2018-03-21T17:08:47.891Z,1.90
2018-03-21T17:11:15.812Z,1.90
2018-03-21T17:13:43.366Z,1.80
2018-03-21T17:16:10.873Z,1.60
2018-03-21T17:18:38.773Z,1.40
2018-03-21T17:21:06.311Z,1.30
2018-03-21T17:23:34.308Z,1.20
2018-03-21T17:26:01.841Z,1.10
2018-03-21T17:28:29.940Z,1.10
2018-03-21T17:30:57.471Z,1.10
2018-03-21T17:33:25.372Z,1.10
2018-03-21T17:35:52.917Z,1.10
2018-03-21T17:38:20.444Z,1.10
2018-03-21T17:40:48.367Z,1.00
2018-03-21T17:43:15.887Z,1.00
2018-03-21T17:45:43.412Z,0.90
2018-03-21T17:48:10.927Z,0.80
2018-03-21T17:50:38.452Z,0.80
2018-03-21T17:53:06.346Z,0.80
2018-03-21T17:55:33.880Z,0.70
2018-03-21T17:58:01.412Z,0.70
2018-03-21T18:00:28.975Z,0.60
2018-03-21T18:02:56.879Z,0.60
2018-03-21T18:05:24.389Z,0.60
2018-03-21T18:08:13.283Z,0.60
2018-03-21T18:10:40.803Z,0.50
2018-03-21T18:13:08.421Z,0.40
2018-03-21T18:15:35.942Z,0.30
2018-03-21T18:18:03.946Z,0.30
2018-03-21T18:20:31.466Z,0.30
2018-03-21T18:22:59.379Z,0.30
2018-03-21T18:25:26.893Z,0.30
2018-03-21T18:27:54.819Z,0.20
2018-03-21T18:30:22.428Z,0.20
2018-03-21T18:32:50.363Z,0.10
2018-03-21T18:35:17.875Z,0.10
2018-03-21T18:37:45.415Z,0.10
2018-03-21T18:40:12.940Z,0.00
2018-03-21T18:42:40.637Z,0.00
2018-03-21T18:45:08.557Z,-0.10
2018-03-21T18:47:36.118Z,-0.10
2018-03-21T18:50:03.646Z,-0.10
2018-03-21T18:52:31.184Z,-0.10
2018-03-21T18:54:58.704Z,-0.10
2018-03-21T18:57:26.254Z,-0.20
2018-03-21T18:59:53.881Z,-0.20
2018-03-21T19:02:21.488Z,-0.20
2018-03-21T19:04:49.026Z,-0.30
2018-03-21T19:07:16.540Z,-0.30
2018-03-21T19:09:44.088Z,-0.30
2018-03-21T19:12:11.991Z,-0.30
2018-03-21T19:14:39.643Z,-0.40
2018-03-21T19:17:07.168Z,-0.40
2018-03-21T19:19:35.106Z,-0.40
2018-03-21T19:22:02.657Z,-0.40
2018-03-21T19:24:30.199Z,-0.40
2018-03-21T19:26:57.790Z,-0.50
2018-03-21T19:29:25.326Z,-0.50
2018-03-21T19:31:52.875Z,-0.50
2018-03-21T19:34:20.436Z,-0.60
2018-03-21T19:36:47.953Z,-0.60
2018-03-21T19:39:15.899Z,-0.60
2018-03-21T19:41:43.816Z,-0.60
2018-03-21T19:44:11.400Z,-0.60
2018-03-21T19:46:38.903Z,-0.60
2018-03-21T19:49:06.524Z,-0.60
2018-03-21T19:51:34.067Z,-0.70
2018-03-21T19:54:01.728Z,-0.70
2018-03-21T19:56:29.255Z,-0.70
2018-03-21T19:58:56.770Z,-0.70
2018-03-21T20:01:24.307Z,-0.80
2018-03-21T20:03:51.823Z,-0.80
2018-03-21T20:06:19.362Z,-0.80
2018-03-21T20:08:47.277Z,-0.90
2018-03-21T20:11:14.821Z,-0.90
2018-03-21T20:13:42.376Z,-1.00
2018-03-21T20:16:09.923Z,-1.00
2018-03-21T20:18:37.436Z,-1.00
2018-03-21T20:21:04.987Z,-1.10
2018-03-21T20:23:32.567Z,-1.10
2018-03-21T20:26:00.509Z,-1.10
2018-03-21T20:28:28.015Z,-1.10
2018-03-21T20:30:55.544Z,-1.20
2018-03-21T20:33:23.062Z,-1.20
2018-03-21T20:35:50.726Z,-1.20
2018-03-21T20:38:18.370Z,-1.20
2018-03-21T20:40:45.891Z,-1.30
2018-03-21T20:43:13.821Z,-1.30
2018-03-21T20:45:41.349Z,-1.40
2018-03-21T20:48:08.878Z,-1.40
2018-03-21T20:50:36.416Z,-1.40
2018-03-21T20:53:03.955Z,-1.40
2018-03-21T20:55:31.467Z,-1.50
2018-03-21T20:57:59.400Z,-1.50
2018-03-21T21:00:27.322Z,-1.50
2018-03-21T21:02:54.881Z,-1.60
2018-03-21T21:05:22.407Z,-1.60
2018-03-21T21:07:50.340Z,-1.60
2018-03-21T21:10:17.869Z,-1.60
2018-03-21T21:12:45.395Z,-1.70
2018-03-21T21:15:13.292Z,-1.70
2018-03-21T21:17:40.837Z,-1.70
2018-03-21T21:20:08.390Z,-1.70
2018-03-21T21:22:35.951Z,-1.70
2018-03-21T21:25:03.464Z,-1.80
2018-03-21T21:27:31.006Z,-1.80
2018-03-21T21:29:58.517Z,-1.80
2018-03-21T21:32:26.071Z,-1.80
2018-03-21T21:34:53.662Z,-1.80
2018-03-21T21:37:21.202Z,-1.90
2018-03-21T21:39:48.812Z,-1.90
2018-03-21T21:42:16.330Z,-1.90
2018-03-21T21:44:43.860Z,-2.00
2018-03-21T21:47:11.371Z,-2.00
2018-03-21T21:49:38.906Z,-2.00
2018-03-21T21:52:06.420Z,-2.00
2018-03-21T21:54:34.375Z,-2.10
2018-03-21T21:57:01.910Z,-2.10
2018-03-21T21:59:29.444Z,-2.10
2018-03-21T22:01:57.000Z,-2.20
2018-03-21T22:04:24.531Z,-2.20
2018-03-21T22:06:52.435Z,-2.20
2018-03-21T22:09:19.978Z,-2.20
2018-03-21T22:11:47.493Z,-2.20
2018-03-21T22:14:15.048Z,-2.30
2018-03-21T22:16:42.666Z,-2.30
2018-03-21T22:19:10.187Z,-2.30
2018-03-21T22:21:38.123Z,-2.40
2018-03-21T22:24:05.644Z,-2.40
2018-03-21T22:26:33.590Z,-2.40
2018-03-21T22:29:01.503Z,-2.40
2018-03-21T22:31:29.057Z,-2.40
2018-03-21T22:33:56.583Z,-2.40
2018-03-21T22:36:24.130Z,-2.40
2018-03-21T22:38:51.668Z,-2.50
2018-03-21T22:41:19.195Z,-2.50
2018-03-21T22:43:46.703Z,-2.50
2018-03-21T22:46:14.652Z,-2.50
2018-03-21T22:48:42.565Z,-2.60
2018-03-21T22:51:10.076Z,-2.70
2018-03-21T22:53:37.599Z,-2.70
2018-03-21T22:56:05.123Z,-2.70
2018-03-21T22:58:32.662Z,-2.70
2018-03-21T23:01:00.575Z,-2.80
2018-03-21T23:03:28.521Z,-2.70
2018-03-21T23:05:56.055Z,-2.80
2018-03-21T23:08:23.978Z,-2.80
2018-03-21T23:10:51.536Z,-2.80
2018-03-21T23:13:19.476Z,-2.80
2018-03-21T23:15:47.020Z,-2.80
2018-03-21T23:18:14.569Z,-2.90
2018-03-21T23:20:42.478Z,-2.90
2018-03-21T23:23:10.023Z,-2.90
2018-03-21T23:25:37.648Z,-2.90
2018-03-21T23:28:05.561Z,-2.90
2018-03-21T23:30:33.111Z,-2.90
2018-03-21T23:33:00.647Z,-2.90
2018-03-21T23:35:28.173Z,-2.90
2018-03-21T23:37:55.702Z,-3.00
2018-03-21T23:40:23.253Z,-3.00
2018-03-21T23:42:50.822Z,-3.00
2018-03-21T23:45:18.360Z,-3.00
2018-03-21T23:47:46.042Z,-3.00
2018-03-21T23:50:13.612Z,-3.00
2018-03-21T23:52:41.127Z,-3.10
2018-03-21T23:55:08.649Z,-3.10
2018-03-21T23:57:36.207Z,-3.10
